Flight Briefing for CPX952

Departure Arrival
Joint Base McGuire Dix Lakehurst (KWRI)
Click to view FAA NOTAMS
Washington Dulles International Airport (KIAD)
Click to view FAA NOTAMS
Departure Time Arrival Time
N/A N/A
Aircraft Distance
B757-200SF 151nm
Departure METAR Arrival METAR
KWRI 221156Z AUTO 31016G25KT 10SM -RA OVC015 04/04 A2934 RMK AO2 PK WND 29031/1056 CIG 014 RWY18 SLP936 P0006 60024 70102 T00420042 10082 20040 53024 KIAD 221205Z 32024G35KT 10SM BKN038 BKN048 06/M02 A2963 RMK AO2 PK WND 30035/1156 T00611017
Suggested Route
MXE


View recent IFR Routes data
Notes
EMPTY | NON-REVENUE REPOSITIONING LEG

Charts and Procedures

Charts for KWRI
No chart available
Charts for KIAD
No chart available

Windy.com Weather Map